createdAt,value
2023-04-04T00:02:10.647Z,1.68
2023-04-04T00:04:37.214Z,1.72
2023-04-04T00:07:03.890Z,1.63
2023-04-04T00:09:31.116Z,1.55
2023-04-04T00:11:58.011Z,1.60
2023-04-04T00:14:24.789Z,1.51
2023-04-04T00:16:51.639Z,1.58
2023-04-04T00:19:18.967Z,1.42
2023-04-04T00:21:48.517Z,1.54
2023-04-04T00:24:15.066Z,1.52
2023-04-04T00:26:42.470Z,1.52
2023-04-04T00:29:08.993Z,1.44
2023-04-04T00:31:35.579Z,1.43
2023-04-04T00:34:02.226Z,1.40
2023-04-04T00:36:28.792Z,1.36
2023-04-04T00:38:58.380Z,1.33
2023-04-04T00:41:25.032Z,1.19
2023-04-04T00:43:51.660Z,1.28
2023-04-04T00:46:19.630Z,1.29
2023-04-04T00:48:47.115Z,1.26
2023-04-04T00:51:13.788Z,1.21
2023-04-04T00:53:40.624Z,1.24
2023-04-04T00:56:09.356Z,1.16
2023-04-04T00:58:36.533Z,1.21
2023-04-04T01:01:03.235Z,1.12
2023-04-04T01:03:29.830Z,1.15
2023-04-04T01:05:56.516Z,1.14
2023-04-04T01:08:25.809Z,1.12
2023-04-04T01:10:52.372Z,1.07
2023-04-04T01:13:19.141Z,1.10
2023-04-04T01:15:45.923Z,1.07
2023-04-04T01:18:17.284Z,1.09
2023-04-04T01:20:59.092Z,1.06
2023-04-04T01:23:35.058Z,1.01
2023-04-04T01:26:05.748Z,1.00
2023-04-04T01:28:32.454Z,0.88
2023-04-04T01:31:02.271Z,0.87
2023-04-04T01:33:34.632Z,0.94
2023-04-04T01:36:10.899Z,0.81
2023-04-04T01:38:40.390Z,0.86
2023-04-04T01:41:09.984Z,0.87
2023-04-04T01:43:37.499Z,0.85
2023-04-04T01:46:04.607Z,0.76
2023-04-04T01:48:31.249Z,0.65
2023-04-04T01:50:58.180Z,0.66
2023-04-04T01:53:24.751Z,0.69
2023-04-04T01:55:51.996Z,0.65
2023-04-04T01:58:18.544Z,0.66
2023-04-04T02:00:45.111Z,0.63
2023-04-04T02:03:12.008Z,0.56
2023-04-04T02:05:38.553Z,0.51
2023-04-04T02:08:05.646Z,0.44
2023-04-04T02:10:32.351Z,0.44
2023-04-04T02:12:58.991Z,0.41
2023-04-04T02:15:26.551Z,0.38
2023-04-04T02:17:53.819Z,0.44
2023-04-04T02:20:20.718Z,0.43
2023-04-04T02:22:54.220Z,0.29
2023-04-04T02:25:21.746Z,0.35
2023-04-04T02:27:48.476Z,0.33
2023-04-04T02:30:15.887Z,0.25
2023-04-04T02:32:43.117Z,0.29
2023-04-04T02:35:09.906Z,0.25
2023-04-04T02:37:39.369Z,0.27
2023-04-04T02:40:06.719Z,0.25
2023-04-04T02:42:33.252Z,0.27
2023-04-04T02:44:59.836Z,0.24
2023-04-04T02:47:26.720Z,0.24
2023-04-04T02:49:53.429Z,0.23
2023-04-04T02:52:21.398Z,0.17
2023-04-04T02:54:47.940Z,0.04
2023-04-04T02:57:14.468Z,-0.00
2023-04-04T02:59:41.086Z,0.07
2023-04-04T03:02:07.750Z,0.14
2023-04-04T03:04:34.446Z,0.13
2023-04-04T03:07:01.156Z,0.01
2023-04-04T03:09:27.707Z,0.06
2023-04-04T03:11:54.253Z,0.06
2023-04-04T03:14:21.043Z,-0.01
2023-04-04T03:16:49.981Z,-0.04
2023-04-04T03:19:16.862Z,0.00
2023-04-04T03:21:43.539Z,0.04
2023-04-04T03:24:10.082Z,-0.00
2023-04-04T03:26:36.817Z,-0.03
2023-04-04T03:29:04.391Z,-0.22
2023-04-04T03:31:31.254Z,-0.26
2023-04-04T03:34:00.950Z,-0.17
2023-04-04T03:36:27.560Z,-0.13
2023-04-04T03:38:54.087Z,-0.33
2023-04-04T03:41:20.784Z,-0.34
2023-04-04T03:43:48.386Z,-0.23
2023-04-04T03:46:15.056Z,-0.26
2023-04-04T03:48:41.629Z,-0.27
2023-04-04T03:51:08.223Z,-0.39
2023-04-04T03:53:36.597Z,-0.50
2023-04-04T03:56:03.348Z,-0.36
2023-04-04T03:58:30.883Z,-0.39
2023-04-04T04:00:57.443Z,-0.42
2023-04-04T04:03:24.247Z,-0.42
2023-04-04T04:05:50.962Z,-0.36
2023-04-04T04:08:17.633Z,-0.62
2023-04-04T04:10:44.271Z,-0.51
2023-04-04T04:13:10.828Z,-0.48
2023-04-04T04:15:37.480Z,-0.60
2023-04-04T04:18:04.280Z,-0.70
2023-04-04T04:20:30.964Z,-0.59
2023-04-04T04:22:57.606Z,-0.54
2023-04-04T04:25:24.160Z,-0.60
2023-04-04T04:27:50.902Z,-0.51
2023-04-04T04:30:17.485Z,-0.51
2023-04-04T04:32:44.108Z,-0.48
2023-04-04T04:35:10.871Z,-0.55
2023-04-04T04:37:37.401Z,-0.57
2023-04-04T04:40:04.170Z,-0.52
2023-04-04T04:42:30.931Z,-0.63
2023-04-04T04:44:57.577Z,-0.55
2023-04-04T04:47:24.398Z,-0.56
2023-04-04T04:49:51.419Z,-0.54
2023-04-04T04:52:19.264Z,-0.57
2023-04-04T04:54:46.001Z,-0.56
2023-04-04T04:57:12.793Z,-0.61
2023-04-04T04:59:41.332Z,-0.59
2023-04-04T05:02:08.563Z,-0.57
2023-04-04T05:04:35.299Z,-0.57
2023-04-04T05:07:02.062Z,-0.61
2023-04-04T05:09:28.716Z,-0.66
2023-04-04T05:11:55.288Z,-0.76
2023-04-04T05:14:21.931Z,-0.67
2023-04-04T05:16:49.119Z,-0.62
2023-04-04T05:19:16.451Z,-0.61
2023-04-04T05:21:43.324Z,-0.62
2023-04-04T05:24:10.143Z,-0.72
2023-04-04T05:26:36.951Z,-0.64
2023-04-04T05:29:03.550Z,-0.64
2023-04-04T05:31:30.146Z,-0.71
2023-04-04T05:33:58.014Z,-0.68
2023-04-04T05:36:24.710Z,-0.68
2023-04-04T05:38:52.081Z,-0.70
2023-04-04T05:41:22.180Z,-0.94
2023-04-04T05:43:48.780Z,-0.78
2023-04-04T05:46:15.671Z,-0.65
2023-04-04T05:48:42.204Z,-0.76
2023-04-04T05:51:09.487Z,-0.86
2023-04-04T05:53:37.725Z,-0.84
2023-04-04T05:56:04.515Z,-0.71
2023-04-04T05:58:31.185Z,-0.86
2023-04-04T06:00:57.866Z,-0.69
2023-04-04T06:03:24.602Z,-0.83
2023-04-04T06:05:54.430Z,-0.72
2023-04-04T06:08:21.005Z,-0.72
2023-04-04T06:10:47.702Z,-0.63
2023-04-04T06:13:14.257Z,-0.80
2023-04-04T06:15:41.000Z,-0.70
2023-04-04T06:18:07.683Z,-0.82
2023-04-04T06:20:34.366Z,-0.68
2023-04-04T06:23:04.558Z,-0.62
2023-04-04T06:25:32.238Z,-0.81
2023-04-04T06:27:59.599Z,-0.86
2023-04-04T06:30:26.703Z,-1.01
2023-04-04T06:32:53.452Z,-0.85
2023-04-04T06:35:20.634Z,-0.96
2023-04-04T06:37:48.338Z,-0.69
2023-04-04T06:40:15.191Z,-0.73
2023-04-04T06:43:01.819Z,-0.69
2023-04-04T06:45:28.733Z,-0.61
2023-04-04T06:47:55.579Z,-0.58
2023-04-04T06:50:23.061Z,-0.68
2023-04-04T06:52:50.277Z,-0.61
2023-04-04T06:55:17.535Z,-0.54
2023-04-04T06:57:44.290Z,-0.59
2023-04-04T07:00:11.469Z,-0.48
2023-04-04T07:02:38.190Z,-0.42
2023-04-04T07:05:05.303Z,-0.48
2023-04-04T07:07:32.010Z,-0.49
2023-04-04T07:09:58.544Z,-0.70
2023-04-04T07:12:25.450Z,-0.60
2023-04-04T07:14:52.050Z,-0.49
2023-04-04T07:17:24.563Z,-0.50
2023-04-04T07:19:51.620Z,-0.53
2023-04-04T07:22:18.409Z,-0.37
2023-04-04T07:24:45.106Z,-0.34
2023-04-04T07:27:11.667Z,-0.35
2023-04-04T07:29:38.223Z,-0.29
2023-04-04T07:32:04.959Z,-0.37
2023-04-04T07:34:31.601Z,-0.38
2023-04-04T07:36:58.184Z,-0.26
2023-04-04T07:39:24.786Z,-0.25
2023-04-04T07:41:51.338Z,-0.53
2023-04-04T07:44:17.901Z,-0.30
2023-04-04T07:46:46.374Z,-0.36
2023-04-04T07:49:14.601Z,-0.28
2023-04-04T07:51:41.661Z,-0.18
2023-04-04T07:54:08.441Z,-0.08
2023-04-04T07:56:35.295Z,-0.11
2023-04-04T07:59:02.169Z,-0.10
2023-04-04T08:01:28.918Z,-0.10
2023-04-04T08:03:55.911Z,-0.13
2023-04-04T08:06:22.620Z,0.01
2023-04-04T08:08:50.805Z,0.03
2023-04-04T08:11:17.652Z,-0.01
2023-04-04T08:13:44.344Z,0.15
2023-04-04T08:16:11.603Z,0.22
2023-04-04T08:18:38.725Z,0.23
2023-04-04T08:21:06.051Z,0.27
2023-04-04T08:23:32.701Z,0.26
2023-04-04T08:26:00.223Z,1.29
2023-04-04T08:28:29.832Z,0.67
2023-04-04T08:30:56.888Z,0.38
2023-04-04T08:33:28.969Z,0.35
2023-04-04T08:36:01.053Z,0.29
2023-04-04T08:38:27.818Z,0.40
2023-04-04T08:40:54.666Z,0.36
2023-04-04T08:43:23.325Z,0.40
2023-04-04T08:45:50.792Z,0.35
2023-04-04T08:48:18.095Z,0.47
2023-04-04T08:50:44.848Z,0.49
2023-04-04T08:53:12.083Z,0.66
2023-04-04T08:55:39.189Z,0.76
2023-04-04T08:58:06.290Z,0.84
2023-04-04T09:00:33.069Z,0.70
2023-04-04T09:03:10.006Z,0.86
2023-04-04T09:05:37.449Z,0.84
2023-04-04T09:08:06.936Z,0.94
2023-04-04T09:10:33.635Z,0.98
2023-04-04T09:13:12.493Z,1.12
2023-04-04T09:15:46.957Z,1.23
2023-04-04T09:18:13.584Z,1.26
2023-04-04T09:20:45.028Z,1.21
2023-04-04T09:23:17.345Z,1.35
2023-04-04T09:26:02.589Z,1.43
2023-04-04T09:28:30.977Z,1.43
2023-04-04T09:31:02.024Z,1.46
2023-04-04T09:33:28.906Z,1.45
2023-04-04T09:35:59.039Z,1.47
2023-04-04T09:38:26.916Z,1.57
2023-04-04T09:40:55.230Z,1.72
2023-04-04T09:43:23.426Z,1.89
2023-04-04T09:45:51.149Z,1.97
2023-04-04T09:48:29.022Z,1.91
2023-04-04T09:51:00.445Z,1.94
2023-04-04T09:53:28.033Z,2.10
2023-04-04T09:55:56.166Z,2.03
2023-04-04T09:58:27.752Z,1.96
2023-04-04T10:01:00.994Z,1.90
2023-04-04T10:03:30.291Z,1.98
2023-04-04T10:05:58.039Z,2.03
2023-04-04T10:08:24.791Z,2.09
2023-04-04T10:11:06.643Z,2.22
2023-04-04T10:13:41.014Z,2.21
2023-04-04T10:16:09.081Z,2.30
2023-04-04T10:18:36.609Z,2.15
2023-04-04T10:23:37.063Z,2.11
2023-04-04T10:26:03.719Z,2.17
2023-04-04T10:28:31.400Z,2.35
2023-04-04T10:31:09.800Z,2.41
2023-04-04T10:33:48.002Z,2.56
2023-04-04T10:36:21.376Z,2.70
2023-04-04T10:38:56.640Z,2.73
2023-04-04T10:41:24.079Z,2.72
2023-04-04T10:43:56.353Z,2.71
2023-04-04T10:46:30.940Z,2.78
2023-04-04T10:49:00.222Z,2.73
2023-04-04T10:51:27.602Z,2.79
2023-04-04T10:53:54.954Z,2.92
2023-04-04T10:56:22.514Z,2.72
2023-04-04T10:58:49.706Z,2.92
2023-04-04T11:01:21.044Z,3.00
2023-04-04T11:04:21.891Z,2.99
2023-04-04T11:07:07.171Z,3.07
2023-04-04T11:10:12.902Z,2.83
2023-04-04T11:12:45.290Z,3.10
2023-04-04T11:15:16.464Z,3.15
2023-04-04T11:17:49.322Z,3.16
2023-04-04T11:20:18.063Z,3.32
2023-04-04T11:22:45.865Z,3.36
2023-04-04T11:25:24.953Z,3.29
2023-04-04T11:27:55.112Z,3.41
2023-04-04T11:30:22.058Z,3.38
2023-04-04T11:33:00.253Z,3.48
2023-04-04T11:35:33.215Z,3.48
2023-04-04T11:38:04.089Z,3.40
2023-04-04T11:40:42.092Z,3.50
2023-04-04T11:43:10.997Z,3.61
2023-04-04T11:48:12.882Z,3.50
2023-04-04T11:50:41.146Z,3.66
2023-04-04T11:53:10.173Z,3.72
2023-04-04T11:55:43.836Z,3.61
2023-04-04T11:58:18.006Z,3.86
2023-04-04T12:00:45.790Z,3.79
2023-04-04T12:03:12.960Z,3.85
2023-04-04T12:05:42.271Z,4.01
2023-04-04T12:08:11.343Z,4.21
2023-04-04T12:10:40.784Z,4.38
2023-04-04T12:13:08.847Z,4.93
2023-04-04T12:15:37.218Z,4.66
2023-04-04T12:18:08.462Z,4.58
2023-04-04T12:20:38.612Z,4.54
2023-04-04T12:23:05.197Z,4.65
2023-04-04T12:25:40.172Z,4.64
2023-04-04T12:28:08.077Z,4.70
2023-04-04T12:30:34.894Z,4.99
2023-04-04T12:33:01.933Z,4.93
2023-04-04T12:35:30.265Z,5.00
2023-04-04T12:38:07.393Z,4.88
2023-04-04T12:40:37.418Z,4.99
2023-04-04T12:43:08.946Z,4.81
2023-04-04T12:45:40.358Z,4.96
2023-04-04T12:48:15.194Z,5.05
2023-04-04T12:50:55.817Z,5.17
2023-04-04T12:55:56.206Z,5.25
2023-04-04T12:58:25.880Z,5.36
2023-04-04T13:00:58.871Z,5.41
2023-04-04T13:03:27.702Z,5.55
2023-04-04T13:05:54.698Z,5.49
2023-04-04T13:08:21.517Z,5.72
2023-04-04T13:11:05.564Z,5.76
2023-04-04T13:13:32.188Z,5.74
2023-04-04T13:15:59.369Z,5.81
2023-04-04T13:18:32.233Z,5.65
2023-04-04T13:20:58.941Z,5.64
2023-04-04T13:23:25.533Z,5.81
2023-04-04T13:25:52.583Z,5.68
2023-04-04T13:28:19.221Z,5.54
2023-04-04T13:30:49.672Z,5.67
2023-04-04T13:33:17.271Z,5.57
2023-04-04T13:35:44.782Z,5.74
2023-04-04T13:38:12.207Z,5.96
2023-04-04T13:40:38.909Z,5.87
2023-04-04T13:43:05.940Z,5.97
2023-04-04T13:45:33.906Z,6.05
2023-04-04T13:48:01.139Z,5.95
2023-04-04T13:50:28.078Z,5.99
2023-04-04T13:52:54.828Z,6.13
2023-04-04T13:55:21.987Z,5.81
2023-04-04T13:57:48.631Z,5.61
2023-04-04T14:00:15.973Z,5.91
2023-04-04T14:02:42.806Z,6.05
2023-04-04T14:05:09.706Z,6.14
2023-04-04T14:07:38.304Z,6.21
2023-04-04T14:10:05.487Z,6.41
2023-04-04T14:12:32.170Z,6.28
2023-04-04T14:14:58.992Z,5.91
2023-04-04T14:17:25.692Z,6.03
2023-04-04T14:19:52.606Z,6.38
2023-04-04T14:22:19.249Z,6.33
2023-04-04T14:24:46.042Z,6.35
2023-04-04T14:27:12.792Z,6.35
2023-04-04T14:29:39.397Z,6.19
2023-04-04T14:32:06.158Z,5.98
2023-04-04T14:34:32.857Z,6.39
2023-04-04T14:36:59.805Z,7.31
2023-04-04T14:39:26.728Z,6.75
2023-04-04T14:41:53.373Z,6.85
2023-04-04T14:44:21.992Z,6.78
2023-04-04T14:46:55.346Z,6.71
2023-04-04T14:49:22.015Z,6.69
2023-04-04T14:51:48.680Z,6.87
2023-04-04T14:54:15.466Z,6.87
2023-04-04T14:56:43.073Z,7.08
2023-04-04T14:59:09.822Z,6.98
2023-04-04T15:01:36.696Z,6.81
2023-04-04T15:04:03.826Z,6.78
2023-04-04T15:06:36.158Z,6.90
2023-04-04T15:09:04.846Z,7.17
2023-04-04T15:11:32.274Z,7.09
2023-04-04T15:13:58.946Z,7.05
2023-04-04T15:16:25.780Z,7.13
2023-04-04T15:18:52.343Z,7.07
2023-04-04T15:21:18.911Z,7.16
2023-04-04T15:23:45.707Z,7.05
2023-04-04T15:26:12.272Z,6.92
2023-04-04T15:28:38.852Z,7.31
2023-04-04T15:31:05.494Z,7.15
2023-04-04T15:33:32.796Z,7.04
2023-04-04T15:35:59.486Z,6.81
2023-04-04T15:38:26.144Z,7.09
2023-04-04T15:40:52.818Z,6.84
2023-04-04T15:43:19.412Z,7.08
2023-04-04T15:45:47.384Z,7.10
2023-04-04T15:48:14.085Z,7.16
2023-04-04T15:50:43.470Z,7.16
2023-04-04T15:53:10.154Z,7.27
2023-04-04T15:55:36.727Z,7.10
2023-04-04T15:58:03.304Z,7.29
2023-04-04T16:00:30.192Z,7.02
2023-04-04T16:02:58.502Z,7.40
2023-04-04T16:05:25.875Z,7.40
2023-04-04T16:07:52.675Z,7.44
2023-04-04T16:10:19.312Z,7.53
2023-04-04T16:12:45.960Z,7.54
2023-04-04T16:15:12.575Z,7.58
2023-04-04T16:17:39.188Z,7.35
2023-04-04T16:20:06.523Z,7.52
2023-04-04T16:22:33.400Z,7.52
2023-04-04T16:25:00.046Z,7.13
2023-04-04T16:27:27.179Z,7.20
2023-04-04T16:29:53.786Z,7.45
2023-04-04T16:32:20.390Z,7.22
2023-04-04T16:34:46.953Z,7.22
2023-04-04T16:37:14.452Z,7.25
2023-04-04T16:39:41.134Z,7.01
2023-04-04T16:42:07.739Z,6.82
2023-04-04T16:44:35.004Z,6.80
2023-04-04T16:47:01.631Z,7.08
2023-04-04T16:49:28.285Z,6.99
2023-04-04T16:51:54.912Z,6.85
2023-04-04T16:54:21.492Z,6.76
2023-04-04T16:56:48.054Z,6.80
2023-04-04T16:59:16.066Z,6.69
2023-04-04T17:01:43.817Z,6.61
2023-04-04T17:04:10.716Z,6.66
2023-04-04T17:06:37.387Z,6.72
2023-04-04T17:09:03.967Z,6.76
2023-04-04T17:11:31.049Z,6.49
2023-04-04T17:13:58.076Z,6.41
2023-04-04T17:16:26.305Z,6.34
2023-04-04T17:18:53.187Z,6.17
2023-04-04T17:21:20.048Z,6.15
2023-04-04T17:23:46.801Z,5.98
2023-04-04T17:26:13.399Z,6.07
2023-04-04T17:28:41.238Z,6.24
2023-04-04T17:31:08.119Z,6.18
2023-04-04T17:33:34.876Z,6.11
2023-04-04T17:36:02.718Z,6.15
2023-04-04T17:38:30.891Z,6.15
2023-04-04T17:41:00.709Z,6.15
2023-04-04T17:43:27.529Z,5.96
2023-04-04T17:45:54.199Z,6.05
2023-04-04T17:48:22.127Z,5.94
2023-04-04T17:50:50.504Z,5.96
2023-04-04T17:53:17.114Z,5.93
2023-04-04T17:55:43.717Z,5.85
2023-04-04T17:58:10.346Z,5.91
2023-04-04T18:00:37.107Z,5.77
2023-04-04T18:03:04.296Z,5.84
2023-04-04T18:05:32.547Z,5.77
2023-04-04T18:07:59.380Z,5.52
2023-04-04T18:10:26.017Z,5.39
2023-04-04T18:12:52.609Z,5.42
2023-04-04T18:15:19.939Z,5.39
2023-04-04T18:17:47.109Z,5.46
2023-04-04T18:20:21.177Z,5.39
2023-04-04T18:22:55.053Z,5.46
2023-04-04T18:25:21.730Z,5.42
2023-04-04T18:27:48.321Z,5.41
2023-04-04T18:30:15.009Z,5.38
2023-04-04T18:32:41.653Z,5.39
2023-04-04T18:35:09.217Z,5.33
2023-04-04T18:37:36.100Z,5.32
2023-04-04T18:40:03.532Z,5.24
2023-04-04T18:42:30.281Z,5.22
2023-04-04T18:44:57.049Z,5.22
2023-04-04T18:47:23.693Z,5.18
2023-04-04T18:49:50.638Z,5.12
2023-04-04T18:52:17.233Z,4.94
2023-04-04T18:54:45.159Z,4.99
2023-04-04T18:57:13.184Z,4.98
2023-04-04T18:59:39.756Z,4.96
2023-04-04T19:02:06.650Z,4.95
2023-04-04T19:04:35.254Z,4.87
2023-04-04T19:07:08.439Z,4.84
2023-04-04T19:09:36.563Z,4.74
2023-04-04T19:12:03.870Z,4.77
2023-04-04T19:14:30.671Z,4.74
2023-04-04T19:16:57.392Z,4.71
2023-04-04T19:19:24.677Z,4.64
2023-04-04T19:21:51.271Z,4.57
2023-04-04T19:24:17.946Z,4.52
2023-04-04T19:26:45.622Z,4.49
2023-04-04T19:29:20.855Z,4.46
2023-04-04T19:31:47.863Z,4.39
2023-04-04T19:34:15.698Z,4.31
2023-04-04T19:36:42.316Z,4.31
2023-04-04T19:39:10.852Z,4.23
2023-04-04T19:41:39.881Z,4.20
2023-04-04T19:44:12.835Z,4.15
2023-04-04T19:46:39.494Z,4.14
2023-04-04T19:49:13.025Z,4.12
2023-04-04T19:51:40.231Z,4.01
2023-04-04T19:54:11.931Z,3.98
2023-04-04T19:56:38.550Z,3.92
2023-04-04T19:59:08.103Z,3.90
2023-04-04T20:01:37.650Z,3.84
2023-04-04T20:04:08.999Z,3.84
2023-04-04T20:06:37.096Z,3.82
2023-04-04T20:09:31.256Z,3.79
2023-04-04T20:11:57.870Z,3.72
2023-04-04T20:14:24.632Z,3.66
2023-04-04T20:16:52.251Z,3.63
2023-04-04T20:19:21.039Z,3.57
2023-04-04T20:21:48.655Z,3.56
2023-04-04T20:24:17.516Z,3.48
2023-04-04T20:26:55.162Z,3.49
2023-04-04T20:29:26.213Z,3.43
2023-04-04T20:31:52.906Z,3.37
2023-04-04T20:34:26.169Z,3.33
2023-04-04T20:36:52.821Z,3.33
2023-04-04T20:39:38.931Z,3.31
2023-04-04T20:42:14.159Z,3.28
2023-04-04T20:44:40.751Z,3.22
2023-04-04T20:47:28.106Z,3.19
2023-04-04T20:49:54.845Z,3.15
2023-04-04T20:52:23.398Z,3.14
2023-04-04T20:54:50.004Z,3.09
2023-04-04T20:57:23.785Z,3.04
2023-04-04T20:59:50.484Z,3.01
2023-04-04T21:02:20.613Z,2.95
2023-04-04T21:04:49.679Z,2.92
2023-04-04T21:07:39.912Z,2.87
2023-04-04T21:10:24.569Z,2.82
2023-04-04T21:12:51.994Z,2.79
2023-04-04T21:15:39.301Z,2.75
2023-04-04T21:18:11.442Z,2.72
2023-04-04T21:20:46.875Z,2.64
2023-04-04T21:23:46.562Z,2.52
2023-04-04T21:26:33.556Z,2.45
2023-04-04T21:29:05.708Z,2.43
2023-04-04T21:31:40.731Z,2.40
2023-04-04T21:34:15.810Z,2.39
2023-04-04T21:36:44.030Z,2.34
2023-04-04T21:39:19.956Z,2.28
2023-04-04T21:41:46.896Z,2.23
2023-04-04T21:44:13.570Z,2.20
2023-04-04T21:46:41.677Z,2.13
2023-04-04T21:49:09.166Z,2.13
2023-04-04T21:51:36.476Z,2.08
2023-04-04T21:54:03.900Z,1.98
2023-04-04T21:56:33.690Z,2.00
2023-04-04T21:59:04.854Z,1.96
2023-04-04T22:01:31.988Z,1.93
2023-04-04T22:03:59.092Z,1.87
2023-04-04T22:06:27.390Z,1.86
2023-04-04T22:08:56.212Z,1.74
2023-04-04T22:11:25.929Z,1.73
2023-04-04T22:14:03.308Z,1.67
2023-04-04T22:16:31.346Z,1.65
2023-04-04T22:19:01.275Z,1.63
2023-04-04T22:21:28.521Z,1.62
2023-04-04T22:24:01.944Z,1.57
2023-04-04T22:26:32.125Z,1.55
2023-04-04T22:29:00.850Z,1.45
2023-04-04T22:31:28.812Z,1.46
2023-04-04T22:33:55.939Z,1.38
2023-04-04T22:36:25.323Z,1.37
2023-04-04T22:38:56.486Z,1.36
2023-04-04T22:41:28.172Z,1.28
2023-04-04T22:43:55.526Z,1.25
2023-04-04T22:46:22.367Z,1.26
2023-04-04T22:48:49.141Z,1.26
2023-04-04T22:51:16.498Z,1.25
2023-04-04T22:53:44.406Z,1.17
2023-04-04T22:56:11.488Z,1.07
2023-04-04T22:58:38.484Z,1.07
2023-04-04T23:01:05.675Z,1.07
2023-04-04T23:03:32.652Z,1.07
2023-04-04T23:05:59.240Z,1.01
2023-04-04T23:08:28.664Z,0.98
2023-04-04T23:10:55.569Z,0.92
2023-04-04T23:13:22.381Z,0.89
2023-04-04T23:15:49.346Z,0.88
2023-04-04T23:18:16.104Z,0.87
2023-04-04T23:20:43.130Z,0.83
2023-04-04T23:23:10.022Z,0.74
2023-04-04T23:25:36.676Z,0.74
2023-04-04T23:28:03.453Z,0.78
2023-04-04T23:30:30.085Z,0.78
2023-04-04T23:32:56.804Z,0.68
2023-04-04T23:35:23.619Z,0.63
2023-04-04T23:37:50.162Z,0.63
2023-04-04T23:40:16.954Z,0.62
2023-04-04T23:42:46.510Z,0.60
2023-04-04T23:45:13.174Z,0.58
2023-04-04T23:47:39.903Z,0.56
2023-04-04T23:50:07.576Z,0.51
2023-04-04T23:52:35.140Z,0.50
2023-04-04T23:55:01.795Z,0.49
2023-04-04T23:57:28.773Z,0.45
2023-04-04T23:59:55.823Z,0.38
